createdAt,value
2022-10-30T00:02:19.773Z,100.00
2022-10-30T00:04:46.235Z,100.00
2022-10-30T00:07:12.663Z,100.00
2022-10-30T00:09:39.114Z,100.00
2022-10-30T00:12:05.738Z,100.00
2022-10-30T00:14:32.280Z,100.00
2022-10-30T00:16:58.676Z,100.00
2022-10-30T00:19:25.246Z,100.00
2022-10-30T00:21:51.674Z,100.00
2022-10-30T00:24:18.113Z,100.00
2022-10-30T00:26:44.489Z,100.00
2022-10-30T00:29:10.905Z,100.00
2022-10-30T00:31:37.310Z,100.00
2022-10-30T00:34:03.701Z,100.00
2022-10-30T00:36:30.188Z,100.00
2022-10-30T00:38:56.577Z,100.00
2022-10-30T00:41:24.332Z,100.00
2022-10-30T00:43:51.462Z,100.00
2022-10-30T00:46:28.158Z,100.00
2022-10-30T00:49:17.626Z,100.00
2022-10-30T00:51:52.399Z,100.00
2022-10-30T00:54:20.251Z,100.00
2022-10-30T00:56:49.029Z,100.00
2022-10-30T00:59:23.990Z,100.00
2022-10-30T01:01:51.186Z,100.00
2022-10-30T01:04:18.014Z,100.00
2022-10-30T01:06:48.455Z,100.00
2022-10-30T01:09:15.969Z,100.00
2022-10-30T01:11:42.451Z,100.00
2022-10-30T01:14:10.049Z,100.00
2022-10-30T01:16:54.685Z,100.00
2022-10-30T01:19:26.420Z,100.00
2022-10-30T01:22:29.960Z,100.00
2022-10-30T01:25:18.136Z,100.00
2022-10-30T01:28:03.322Z,100.00
2022-10-30T01:30:39.825Z,100.00
2022-10-30T01:33:25.036Z,100.00
2022-10-30T01:36:03.317Z,100.00
2022-10-30T01:38:36.847Z,100.00
2022-10-30T01:41:03.306Z,100.00
2022-10-30T01:43:29.888Z,100.00
2022-10-30T01:46:30.209Z,100.00
2022-10-30T01:49:09.589Z,100.00
2022-10-30T01:52:05.218Z,100.00
2022-10-30T01:54:40.458Z,100.00
2022-10-30T01:57:21.687Z,99.81
2022-10-30T01:59:54.037Z,99.07
2022-10-30T02:02:20.805Z,98.80
2022-10-30T02:04:47.310Z,97.98
2022-10-30T02:07:13.749Z,97.40
2022-10-30T02:09:40.267Z,97.05
2022-10-30T02:12:08.490Z,96.49
2022-10-30T02:14:40.936Z,96.17
2022-10-30T02:17:08.756Z,95.76
2022-10-30T02:19:35.334Z,95.08
2022-10-30T02:22:01.933Z,94.86
2022-10-30T02:24:29.675Z,94.40
2022-10-30T02:26:56.086Z,94.31
2022-10-30T02:29:22.716Z,94.08
2022-10-30T02:31:49.215Z,93.80
2022-10-30T02:34:16.182Z,93.66
2022-10-30T02:36:43.646Z,93.33
2022-10-30T02:39:10.044Z,93.22
2022-10-30T02:41:36.809Z,92.96
2022-10-30T02:44:03.990Z,92.69
2022-10-30T02:46:30.481Z,92.41
2022-10-30T02:48:56.871Z,92.36
2022-10-30T02:51:24.567Z,92.14
2022-10-30T02:53:50.976Z,92.07
2022-10-30T02:56:17.756Z,92.21
2022-10-30T02:58:44.209Z,92.13
2022-10-30T03:01:16.504Z,91.97
2022-10-30T03:03:43.785Z,91.75
2022-10-30T03:06:12.898Z,91.57
2022-10-30T03:08:39.322Z,91.50
2022-10-30T03:11:11.742Z,91.17
2022-10-30T03:13:40.802Z,91.09
2022-10-30T03:16:10.703Z,91.06
2022-10-30T03:18:37.503Z,90.88
2022-10-30T03:21:06.601Z,90.96
2022-10-30T03:23:33.390Z,91.05
2022-10-30T03:26:00.302Z,91.15
2022-10-30T03:28:29.634Z,91.18
2022-10-30T03:31:05.249Z,91.19
2022-10-30T03:33:32.641Z,91.21
2022-10-30T03:36:00.035Z,91.10
2022-10-30T03:38:27.238Z,90.89
2022-10-30T03:40:54.073Z,90.80
2022-10-30T03:43:20.787Z,90.75
2022-10-30T03:45:49.110Z,90.84
2022-10-30T03:48:16.304Z,90.76
2022-10-30T03:50:42.729Z,90.87
2022-10-30T03:53:09.130Z,90.56
2022-10-30T03:55:35.546Z,90.64
2022-10-30T03:58:01.944Z,90.77
2022-10-30T04:00:28.484Z,90.46
2022-10-30T04:02:55.398Z,90.47
2022-10-30T04:05:23.250Z,90.54
2022-10-30T04:07:56.174Z,90.62
2022-10-30T04:10:23.973Z,90.69
2022-10-30T04:12:51.507Z,90.70
2022-10-30T04:15:17.929Z,90.73
2022-10-30T04:17:51.446Z,90.95
2022-10-30T04:20:19.351Z,91.01
2022-10-30T04:22:46.020Z,91.08
2022-10-30T04:25:12.861Z,91.05
2022-10-30T04:27:41.151Z,91.11
2022-10-30T04:30:08.245Z,91.03
2022-10-30T04:32:34.671Z,91.02
2022-10-30T04:35:01.069Z,90.96
2022-10-30T04:37:27.454Z,90.78
2022-10-30T04:39:54.007Z,90.73
2022-10-30T04:42:20.421Z,90.70
2022-10-30T04:44:46.839Z,90.73
2022-10-30T04:47:13.382Z,90.64
2022-10-30T04:49:39.791Z,90.52
2022-10-30T04:52:06.252Z,90.64
2022-10-30T04:54:32.670Z,90.56
2022-10-30T04:56:59.100Z,90.55
2022-10-30T04:59:25.482Z,90.45
2022-10-30T05:01:51.935Z,90.61
2022-10-30T05:04:18.373Z,90.64
2022-10-30T05:06:44.810Z,90.60
2022-10-30T05:09:11.207Z,90.65
2022-10-30T05:11:37.634Z,90.47
2022-10-30T05:14:04.049Z,90.48
2022-10-30T05:16:30.437Z,90.49
2022-10-30T05:18:56.866Z,90.52
2022-10-30T05:21:23.302Z,90.52
2022-10-30T05:23:49.714Z,90.45
2022-10-30T05:26:16.298Z,90.30
2022-10-30T05:28:42.733Z,90.36
2022-10-30T05:31:09.176Z,90.33
2022-10-30T05:33:35.578Z,90.22
2022-10-30T05:36:02.011Z,90.15
2022-10-30T05:38:28.402Z,90.16
2022-10-30T05:40:54.820Z,90.13
2022-10-30T05:43:21.393Z,90.24
2022-10-30T05:45:50.883Z,89.90
2022-10-30T05:48:17.381Z,90.01
2022-10-30T05:50:44.166Z,89.77
2022-10-30T05:53:11.193Z,89.79
2022-10-30T05:55:37.634Z,89.66
2022-10-30T05:58:05.444Z,89.72
2022-10-30T06:00:35.072Z,89.80
2022-10-30T06:03:03.358Z,89.66
2022-10-30T06:05:31.723Z,89.84
2022-10-30T06:07:58.252Z,89.63
2022-10-30T06:10:25.329Z,89.71
2022-10-30T06:12:56.700Z,89.81
2022-10-30T06:15:23.893Z,89.64
2022-10-30T06:17:50.625Z,89.63
2022-10-30T06:20:18.938Z,89.60
2022-10-30T06:23:04.724Z,89.87
2022-10-30T06:25:40.411Z,89.75
2022-10-30T06:28:07.714Z,89.61
2022-10-30T06:30:34.113Z,89.62
2022-10-30T06:33:02.424Z,89.52
2022-10-30T06:35:29.375Z,89.60
2022-10-30T06:37:56.544Z,89.58
2022-10-30T06:40:23.910Z,89.64
2022-10-30T06:42:52.324Z,89.61
2022-10-30T06:45:19.340Z,89.50
2022-10-30T06:47:45.942Z,89.37
2022-10-30T06:50:16.122Z,89.37
2022-10-30T06:52:42.846Z,89.31
2022-10-30T06:55:10.229Z,89.32
2022-10-30T06:57:37.580Z,89.40
2022-10-30T07:00:06.349Z,89.16
2022-10-30T07:02:32.899Z,89.13
2022-10-30T07:04:59.453Z,89.08
2022-10-30T07:07:25.874Z,89.00
2022-10-30T07:09:52.259Z,89.08
2022-10-30T07:12:18.674Z,88.96
2022-10-30T07:14:45.057Z,88.90
2022-10-30T07:17:11.525Z,88.87
2022-10-30T07:19:37.947Z,88.92
2022-10-30T07:22:04.339Z,88.77
2022-10-30T07:24:30.760Z,88.81
2022-10-30T07:26:57.207Z,88.95
2022-10-30T07:29:23.694Z,88.88
2022-10-30T07:32:02.121Z,88.96
2022-10-30T07:34:29.795Z,89.01
2022-10-30T07:36:56.228Z,88.95
2022-10-30T07:39:22.689Z,88.88
2022-10-30T07:41:50.564Z,88.96
2022-10-30T07:44:17.392Z,88.82
2022-10-30T07:46:43.928Z,88.81
2022-10-30T07:49:10.393Z,88.69
2022-10-30T07:51:36.834Z,88.68
2022-10-30T07:54:03.439Z,88.40
2022-10-30T07:56:29.864Z,88.27
2022-10-30T07:58:56.258Z,88.57
2022-10-30T08:01:23.210Z,88.50
2022-10-30T08:03:49.774Z,88.51
2022-10-30T08:06:16.203Z,88.30
2022-10-30T08:08:43.572Z,88.31
2022-10-30T08:11:10.313Z,88.17
2022-10-30T08:13:36.778Z,88.18
2022-10-30T08:16:03.184Z,88.40
2022-10-30T08:18:29.592Z,88.30
2022-10-30T08:20:55.998Z,88.30
2022-10-30T08:23:23.038Z,88.34
2022-10-30T08:25:49.455Z,88.34
2022-10-30T08:28:19.381Z,88.34
2022-10-30T08:30:45.827Z,88.19
2022-10-30T08:33:15.691Z,88.38
2022-10-30T08:35:53.719Z,88.40
2022-10-30T08:38:20.505Z,88.47
2022-10-30T08:40:46.943Z,88.63
2022-10-30T08:43:13.746Z,88.84
2022-10-30T08:45:40.443Z,89.11
2022-10-30T08:48:07.924Z,89.11
2022-10-30T08:50:34.651Z,89.25
2022-10-30T08:53:06.668Z,89.54
2022-10-30T08:55:33.751Z,89.92
2022-10-30T08:58:00.529Z,90.24
2022-10-30T09:00:27.828Z,90.51
2022-10-30T09:02:54.466Z,90.58
2022-10-30T09:05:20.886Z,91.20
2022-10-30T09:07:47.892Z,91.58
2022-10-30T09:10:14.787Z,92.21
2022-10-30T09:12:41.202Z,93.13
2022-10-30T09:15:08.409Z,94.04
2022-10-30T09:17:34.883Z,96.04
2022-10-30T09:20:01.536Z,98.17
2022-10-30T09:22:27.998Z,100.00
2022-10-30T09:24:54.427Z,100.00
2022-10-30T09:27:20.827Z,100.00
2022-10-30T09:29:47.295Z,100.00
2022-10-30T09:32:13.694Z,100.00
2022-10-30T09:34:40.973Z,100.00
2022-10-30T09:37:08.279Z,100.00
2022-10-30T09:39:34.685Z,100.00
2022-10-30T09:42:16.244Z,100.00
2022-10-30T09:45:27.512Z,100.00
2022-10-30T09:48:01.710Z,100.00
2022-10-30T09:50:42.205Z,100.00
2022-10-30T09:53:33.731Z,100.00
2022-10-30T09:56:15.522Z,100.00
2022-10-30T09:59:16.798Z,100.00
2022-10-30T10:02:15.735Z,100.00
2022-10-30T10:04:50.750Z,100.00
2022-10-30T10:07:23.373Z,100.00
2022-10-30T10:09:54.054Z,100.00
2022-10-30T10:12:33.049Z,100.00
2022-10-30T10:15:04.448Z,100.00
2022-10-30T10:17:36.765Z,100.00
2022-10-30T10:20:05.675Z,100.00
2022-10-30T10:22:45.126Z,100.00
2022-10-30T10:25:16.948Z,100.00
2022-10-30T10:28:04.931Z,100.00
2022-10-30T10:30:41.787Z,100.00
2022-10-30T10:33:38.878Z,100.00
2022-10-30T10:36:24.211Z,100.00
2022-10-30T10:39:02.948Z,100.00
2022-10-30T10:41:46.655Z,100.00
2022-10-30T10:44:17.906Z,100.00
2022-10-30T10:47:07.128Z,100.00
2022-10-30T10:49:50.423Z,100.00
2022-10-30T10:52:23.771Z,100.00
2022-10-30T10:54:52.714Z,100.00
2022-10-30T10:57:41.009Z,100.00
2022-10-30T11:00:17.691Z,100.00
2022-10-30T11:02:51.069Z,100.00
2022-10-30T11:05:36.146Z,100.00
2022-10-30T11:08:19.646Z,100.00
2022-10-30T11:10:51.655Z,100.00
2022-10-30T11:13:18.084Z,100.00
2022-10-30T11:15:56.910Z,100.00
2022-10-30T11:18:23.332Z,100.00
2022-10-30T11:20:59.805Z,100.00
2022-10-30T11:23:39.357Z,100.00
2022-10-30T11:26:17.961Z,100.00
2022-10-30T11:28:52.496Z,100.00
2022-10-30T11:31:49.720Z,100.00
2022-10-30T11:34:19.101Z,100.00
2022-10-30T11:36:51.105Z,100.00
2022-10-30T11:39:29.372Z,100.00
2022-10-30T11:42:06.877Z,100.00
2022-10-30T11:44:43.365Z,100.00
2022-10-30T11:47:12.108Z,100.00
2022-10-30T11:49:53.254Z,100.00
2022-10-30T11:52:24.669Z,100.00
2022-10-30T11:55:15.263Z,100.00
2022-10-30T11:57:46.667Z,100.00
2022-10-30T12:00:34.709Z,100.00
2022-10-30T12:03:01.970Z,100.00
2022-10-30T12:05:31.742Z,100.00
2022-10-30T12:08:19.699Z,100.00
2022-10-30T12:10:45.976Z,100.00
2022-10-30T12:13:21.585Z,100.00
2022-10-30T12:15:50.818Z,100.00
2022-10-30T12:18:25.749Z,100.00
2022-10-30T12:20:57.132Z,100.00
2022-10-30T12:23:26.297Z,100.00
2022-10-30T12:25:59.121Z,100.00
2022-10-30T12:28:28.512Z,100.00
2022-10-30T12:31:04.398Z,100.00
2022-10-30T12:33:50.308Z,100.00
2022-10-30T12:36:20.889Z,100.00
2022-10-30T12:38:58.902Z,100.00
2022-10-30T12:41:27.214Z,100.00
2022-10-30T12:44:18.159Z,100.00
2022-10-30T12:46:51.125Z,100.00
2022-10-30T12:49:30.159Z,100.00
2022-10-30T12:52:03.054Z,100.00
2022-10-30T12:55:05.001Z,100.00
2022-10-30T12:57:37.009Z,100.00
2022-10-30T13:00:13.638Z,100.00
2022-10-30T13:02:45.954Z,100.00
2022-10-30T13:05:27.602Z,100.00
2022-10-30T13:08:00.369Z,100.00
2022-10-30T13:10:43.262Z,100.00
2022-10-30T13:13:21.761Z,100.00
2022-10-30T13:15:54.817Z,100.00
2022-10-30T13:18:24.404Z,100.00
2022-10-30T13:21:21.311Z,100.00
2022-10-30T13:24:11.414Z,100.00
2022-10-30T13:26:46.764Z,100.00
2022-10-30T13:29:22.375Z,100.00
2022-10-30T13:31:54.939Z,100.00
2022-10-30T13:34:44.209Z,100.00
2022-10-30T13:37:20.917Z,100.00
2022-10-30T13:40:02.658Z,100.00
2022-10-30T13:42:38.285Z,100.00
2022-10-30T13:45:26.430Z,100.00
2022-10-30T13:48:11.482Z,100.00
2022-10-30T13:51:00.904Z,100.00
2022-10-30T13:53:32.124Z,100.00
2022-10-30T13:55:59.328Z,100.00
2022-10-30T13:58:46.253Z,100.00
2022-10-30T14:01:17.167Z,100.00
2022-10-30T14:04:20.767Z,100.00
2022-10-30T14:07:14.957Z,100.00
2022-10-30T14:09:52.658Z,100.00
2022-10-30T14:12:57.887Z,100.00
2022-10-30T14:15:24.466Z,100.00
2022-10-30T14:18:12.857Z,100.00
2022-10-30T14:20:46.395Z,100.00
2022-10-30T14:23:35.462Z,100.00
2022-10-30T14:26:01.990Z,100.00
2022-10-30T14:28:29.905Z,100.00
2022-10-30T14:31:06.975Z,100.00
2022-10-30T14:33:39.628Z,100.00
2022-10-30T14:36:13.591Z,100.00
2022-10-30T14:38:40.056Z,100.00
2022-10-30T14:41:18.275Z,100.00
2022-10-30T14:43:56.538Z,100.00
2022-10-30T14:46:30.122Z,100.00
2022-10-30T14:49:03.782Z,100.00
2022-10-30T14:51:38.099Z,100.00
2022-10-30T14:54:35.115Z,100.00
2022-10-30T14:57:01.544Z,100.00
2022-10-30T14:59:33.505Z,100.00
2022-10-30T15:02:21.179Z,100.00
2022-10-30T15:05:05.477Z,100.00
2022-10-30T15:07:50.237Z,100.00
2022-10-30T15:10:30.238Z,100.00
2022-10-30T15:13:19.282Z,100.00
2022-10-30T15:15:49.093Z,100.00
2022-10-30T15:18:19.433Z,100.00
2022-10-30T15:20:52.406Z,100.00
2022-10-30T15:23:26.935Z,100.00
2022-10-30T15:25:55.300Z,100.00
2022-10-30T15:31:24.765Z,100.00
2022-10-30T15:33:54.116Z,100.00
2022-10-30T15:36:28.462Z,100.00
2022-10-30T15:39:15.093Z,100.00
2022-10-30T15:41:54.769Z,100.00
2022-10-30T15:44:33.010Z,100.00
2022-10-30T15:47:02.352Z,100.00
2022-10-30T15:49:34.234Z,100.00
2022-10-30T15:52:14.158Z,100.00
2022-10-30T15:54:43.845Z,100.00
2022-10-30T15:57:56.986Z,100.00
2022-10-30T16:00:30.351Z,100.00
2022-10-30T16:03:00.119Z,100.00
2022-10-30T16:05:27.601Z,100.00
2022-10-30T16:07:59.546Z,100.00
2022-10-30T16:10:31.225Z,100.00
2022-10-30T16:12:58.785Z,100.00
2022-10-30T16:15:31.697Z,100.00
2022-10-30T16:18:10.408Z,100.00
2022-10-30T16:20:40.460Z,100.00
2022-10-30T16:23:07.162Z,100.00
2022-10-30T16:25:37.464Z,100.00
2022-10-30T16:28:05.252Z,100.00
2022-10-30T16:30:34.039Z,100.00
2022-10-30T16:33:00.885Z,100.00
2022-10-30T16:35:28.003Z,100.00
2022-10-30T16:37:55.864Z,100.00
2022-10-30T16:40:26.001Z,100.00
2022-10-30T16:42:58.161Z,100.00
2022-10-30T16:45:25.026Z,100.00
2022-10-30T16:48:09.166Z,100.00
2022-10-30T16:50:38.089Z,100.00
2022-10-30T16:53:25.466Z,100.00
2022-10-30T16:55:53.703Z,100.00
2022-10-30T16:58:20.875Z,100.00
2022-10-30T17:01:06.189Z,100.00
2022-10-30T17:03:38.160Z,100.00
2022-10-30T17:06:07.955Z,100.00
2022-10-30T17:08:54.472Z,100.00
2022-10-30T17:11:35.021Z,100.00
2022-10-30T17:14:04.212Z,100.00
2022-10-30T17:16:33.051Z,100.00
2022-10-30T17:19:01.667Z,100.00
2022-10-30T17:21:42.022Z,100.00
2022-10-30T17:24:25.689Z,100.00
2022-10-30T17:27:00.931Z,100.00
2022-10-30T17:29:36.435Z,100.00
2022-10-30T17:32:17.221Z,100.00
2022-10-30T17:34:43.765Z,100.00
2022-10-30T17:37:10.158Z,100.00
2022-10-30T17:39:36.588Z,100.00
2022-10-30T17:42:03.885Z,100.00
2022-10-30T17:44:34.697Z,100.00
2022-10-30T17:47:17.947Z,100.00
2022-10-30T17:49:45.448Z,100.00
2022-10-30T17:52:13.870Z,100.00
2022-10-30T17:54:41.954Z,100.00
2022-10-30T17:57:14.536Z,100.00
2022-10-30T17:59:42.013Z,100.00
2022-10-30T18:02:18.745Z,100.00
2022-10-30T18:04:45.828Z,100.00
2022-10-30T18:07:14.057Z,100.00
2022-10-30T18:09:40.871Z,100.00
2022-10-30T18:12:10.696Z,100.00
2022-10-30T18:14:37.103Z,100.00
2022-10-30T18:17:03.538Z,100.00
2022-10-30T18:19:30.154Z,100.00
2022-10-30T18:21:56.566Z,100.00
2022-10-30T18:24:23.129Z,100.00
2022-10-30T18:26:49.643Z,100.00
2022-10-30T18:29:16.075Z,100.00
2022-10-30T18:31:42.517Z,100.00
2022-10-30T18:34:18.238Z,100.00
2022-10-30T18:36:44.973Z,100.00
2022-10-30T18:39:12.784Z,100.00
2022-10-30T18:41:46.471Z,100.00
2022-10-30T18:44:14.787Z,100.00
2022-10-30T18:46:41.131Z,100.00
2022-10-30T18:49:07.578Z,100.00
2022-10-30T18:51:34.049Z,100.00
2022-10-30T18:54:00.497Z,100.00
2022-10-30T18:56:29.781Z,100.00
2022-10-30T18:59:00.709Z,100.00
2022-10-30T19:01:28.921Z,100.00
2022-10-30T19:03:55.489Z,100.00
2022-10-30T19:06:23.726Z,100.00
2022-10-30T19:08:50.588Z,100.00
2022-10-30T19:11:24.307Z,100.00
2022-10-30T19:13:52.098Z,100.00
2022-10-30T19:16:19.868Z,100.00
2022-10-30T19:18:47.408Z,100.00
2022-10-30T19:21:22.417Z,100.00
2022-10-30T19:23:49.281Z,100.00
2022-10-30T19:26:17.266Z,100.00
2022-10-30T19:28:44.367Z,100.00
2022-10-30T19:31:14.769Z,100.00
2022-10-30T19:33:41.940Z,100.00
2022-10-30T19:36:33.629Z,100.00
2022-10-30T19:39:04.453Z,100.00
2022-10-30T19:41:35.408Z,100.00
2022-10-30T19:44:01.793Z,100.00
2022-10-30T19:46:28.205Z,100.00
2022-10-30T19:48:57.578Z,100.00
2022-10-30T19:51:25.021Z,100.00
2022-10-30T19:53:53.438Z,100.00
2022-10-30T19:56:20.406Z,100.00
2022-10-30T19:58:46.813Z,100.00
2022-10-30T20:01:13.718Z,100.00
2022-10-30T20:03:40.194Z,100.00
2022-10-30T20:06:06.825Z,100.00
2022-10-30T20:08:33.218Z,100.00
2022-10-30T20:11:00.763Z,100.00
2022-10-30T20:13:28.577Z,100.00
2022-10-30T20:15:56.302Z,100.00
2022-10-30T20:18:27.451Z,100.00
2022-10-30T20:21:02.504Z,99.53
2022-10-30T20:23:28.964Z,98.98
2022-10-30T20:26:01.663Z,98.26
2022-10-30T20:28:35.480Z,98.19
2022-10-30T20:31:02.177Z,97.50
2022-10-30T20:33:28.632Z,97.53
2022-10-30T20:35:55.424Z,97.79
2022-10-30T20:38:29.192Z,97.45
2022-10-30T20:40:57.133Z,97.57
2022-10-30T20:43:35.385Z,97.24
2022-10-30T20:46:02.631Z,96.92
2022-10-30T20:48:29.537Z,96.34
2022-10-30T20:50:57.428Z,95.90
2022-10-30T20:53:24.417Z,95.17
2022-10-30T20:55:50.834Z,94.89
2022-10-30T20:58:17.613Z,94.66
2022-10-30T21:00:44.425Z,94.32
2022-10-30T21:03:14.369Z,94.18
2022-10-30T21:05:44.358Z,93.91
2022-10-30T21:08:12.933Z,93.63
2022-10-30T21:10:39.977Z,93.61
2022-10-30T21:13:08.944Z,93.25
2022-10-30T21:15:44.413Z,93.19
2022-10-30T21:18:15.284Z,92.99
2022-10-30T21:20:41.691Z,92.86
2022-10-30T21:23:09.099Z,92.79
2022-10-30T21:25:36.093Z,92.76
2022-10-30T21:28:02.888Z,92.64
2022-10-30T21:30:29.311Z,93.01
2022-10-30T21:32:55.731Z,92.41
2022-10-30T21:35:22.187Z,92.27
2022-10-30T21:37:48.806Z,92.16
2022-10-30T21:40:15.233Z,92.03
2022-10-30T21:42:41.846Z,92.01
2022-10-30T21:45:09.265Z,91.86
2022-10-30T21:47:35.823Z,91.89
2022-10-30T21:50:06.309Z,91.77
2022-10-30T21:52:36.107Z,91.89
2022-10-30T21:55:02.680Z,91.87
2022-10-30T21:57:29.659Z,91.75
2022-10-30T21:59:58.794Z,91.80
2022-10-30T22:02:28.204Z,91.84
2022-10-30T22:04:54.587Z,91.57
2022-10-30T22:07:21.063Z,91.51
2022-10-30T22:09:47.458Z,91.52
2022-10-30T22:12:13.856Z,91.41
2022-10-30T22:14:40.266Z,91.38
2022-10-30T22:17:06.712Z,91.14
2022-10-30T22:19:33.121Z,91.06
2022-10-30T22:21:59.538Z,91.00
2022-10-30T22:24:25.913Z,91.16
2022-10-30T22:26:52.315Z,91.43
2022-10-30T22:29:18.889Z,91.35
2022-10-30T22:31:45.289Z,91.47
2022-10-30T22:34:11.665Z,91.29
2022-10-30T22:36:38.221Z,91.36
2022-10-30T22:39:12.212Z,91.19
2022-10-30T22:41:39.580Z,91.24
2022-10-30T22:44:08.665Z,91.18
2022-10-30T22:46:36.105Z,91.25
2022-10-30T22:49:03.208Z,91.05
2022-10-30T22:51:31.973Z,90.83
2022-10-30T22:54:01.262Z,90.93
2022-10-30T22:56:30.933Z,90.89
2022-10-30T22:59:00.041Z,90.90
2022-10-30T23:01:31.769Z,90.89
2022-10-30T23:04:00.385Z,90.91
2022-10-30T23:06:28.181Z,90.95
2022-10-30T23:08:56.507Z,91.13
2022-10-30T23:11:23.191Z,91.14
2022-10-30T23:13:49.689Z,91.03
2022-10-30T23:16:18.613Z,91.18
2022-10-30T23:18:45.791Z,91.30
2022-10-30T23:21:18.311Z,91.40
2022-10-30T23:23:45.125Z,91.40
2022-10-30T23:26:14.891Z,91.41
2022-10-30T23:28:41.322Z,91.33
2022-10-30T23:31:20.860Z,91.37
2022-10-30T23:33:48.609Z,91.70
2022-10-30T23:36:15.924Z,91.62
2022-10-30T23:38:42.401Z,91.69
2022-10-30T23:41:08.982Z,91.70
2022-10-30T23:43:35.469Z,91.64
2022-10-30T23:46:02.045Z,91.47
2022-10-30T23:48:28.502Z,91.45
2022-10-30T23:50:54.909Z,91.52
2022-10-30T23:53:21.492Z,91.63
2022-10-30T23:55:54.636Z,91.70
2022-10-30T23:58:21.673Z,91.84
